Terminal Aerodrome Forecast
Issued by NWS

Home | Current Version | Previous Version | Text Only | Print | Product List | Glossary On
Versions: 1 2 3 4 5 6 7 8 9 10 11 12 13 14 15 16 17
000
FTUS46 KSEW 030307 AAB
TAFPAE
TAF AMD
KPAE 030307Z 0303/0324 03005KT P6SM SCT060 OVC070
      TEMPO 0303/0306 5SM -SHRA OVC060
     FM030700 VRB04KT P6SM SCT030 BKN060
     FM031000 21008KT P6SM BKN025 OVC040
     FM031800 22008KT P6SM BKN035 OVC080=

USA.gov is the U.S. government's official web portal to all federal, state and local government web resources and services.